createdAt,value
2024-01-04T00:00:24.760Z,8.50
2024-01-04T00:02:55.030Z,8.50
2024-01-04T00:05:24.162Z,8.50
2024-01-04T00:07:52.888Z,8.50
2024-01-04T00:10:21.883Z,8.50
2024-01-04T00:13:00.287Z,8.60
2024-01-04T00:15:28.833Z,8.60
2024-01-04T00:17:59.002Z,8.60
2024-01-04T00:20:27.757Z,8.60
2024-01-04T00:22:56.326Z,8.60
2024-01-04T00:25:24.942Z,8.60
2024-01-04T00:27:53.740Z,8.60
2024-01-04T00:30:21.523Z,8.60
2024-01-04T00:32:50.450Z,8.60
2024-01-04T00:35:20.687Z,8.50
2024-01-04T00:37:49.370Z,8.50
2024-01-04T00:40:18.220Z,8.50
2024-01-04T00:42:46.893Z,8.50
2024-01-04T00:45:15.475Z,8.40
2024-01-04T00:47:44.304Z,8.40
2024-01-04T00:50:13.237Z,8.40
2024-01-04T00:52:43.317Z,8.40
2024-01-04T00:55:12.316Z,8.40
2024-01-04T00:57:40.889Z,8.40
2024-01-04T01:00:10.870Z,8.40
2024-01-04T01:02:39.701Z,8.40
2024-01-04T01:05:09.374Z,8.40
2024-01-04T01:07:37.994Z,8.40
2024-01-04T01:10:09.397Z,8.30
2024-01-04T01:12:38.094Z,8.30
2024-01-04T01:15:07.606Z,8.30
2024-01-04T01:17:36.293Z,8.30
2024-01-04T01:20:05.374Z,8.30
2024-01-04T01:22:34.429Z,8.30
2024-01-04T01:25:03.272Z,8.30
2024-01-04T01:27:33.333Z,8.20
2024-01-04T01:30:01.935Z,8.30
2024-01-04T01:32:30.837Z,8.30
2024-01-04T01:34:59.598Z,8.30
2024-01-04T01:37:28.243Z,8.20
2024-01-04T01:39:57.078Z,8.30
2024-01-04T01:42:25.677Z,8.30
2024-01-04T01:44:55.914Z,8.30
2024-01-04T01:47:25.704Z,8.30
2024-01-04T01:49:54.905Z,8.30
2024-01-04T01:52:24.861Z,8.30
2024-01-04T01:54:53.869Z,8.20
2024-01-04T01:57:22.973Z,8.30
2024-01-04T01:59:51.700Z,8.20
2024-01-04T02:02:21.912Z,8.20
2024-01-04T02:04:50.775Z,8.20
2024-01-04T02:07:19.661Z,8.20
2024-01-04T02:09:48.499Z,8.20
2024-01-04T02:12:17.310Z,8.20
2024-01-04T02:14:46.105Z,8.20
2024-01-04T02:17:14.875Z,8.20
2024-01-04T02:19:45.126Z,8.20
2024-01-04T02:22:13.975Z,8.20
2024-01-04T02:24:44.173Z,8.20
2024-01-04T02:27:13.699Z,8.20
2024-01-04T02:29:42.383Z,8.20
2024-01-04T02:32:11.112Z,8.20
2024-01-04T02:34:39.786Z,8.10
2024-01-04T02:37:08.453Z,8.10
2024-01-04T02:39:37.003Z,8.10
2024-01-04T02:42:07.303Z,8.10
2024-01-04T02:44:36.105Z,8.10
2024-01-04T02:47:05.068Z,8.10
2024-01-04T02:49:33.765Z,8.00
2024-01-04T02:52:02.666Z,8.10
2024-01-04T02:54:31.370Z,8.10
2024-01-04T02:57:01.983Z,8.10
2024-01-04T02:59:32.052Z,8.10
2024-01-04T03:02:00.734Z,8.20
2024-01-04T03:04:29.759Z,8.10
2024-01-04T03:06:58.369Z,8.10
2024-01-04T03:09:26.965Z,8.10
2024-01-04T03:11:55.934Z,8.20
2024-01-04T03:14:24.617Z,8.10
2024-01-04T03:16:54.765Z,8.20
2024-01-04T03:19:23.444Z,8.10
2024-01-04T03:21:52.037Z,8.10
2024-01-04T03:24:20.731Z,8.10
2024-01-04T03:26:49.395Z,8.10
2024-01-04T03:29:17.956Z,8.20
2024-01-04T03:31:46.673Z,8.20
2024-01-04T03:34:18.007Z,8.10
2024-01-04T03:36:46.767Z,8.20
2024-01-04T03:39:15.507Z,8.20
2024-01-04T03:41:44.622Z,8.20
2024-01-04T03:44:13.242Z,8.20
2024-01-04T03:46:41.906Z,8.20
2024-01-04T03:49:11.068Z,8.10
2024-01-04T03:51:41.236Z,8.20
2024-01-04T03:54:09.889Z,8.30
2024-01-04T03:56:38.611Z,8.10
2024-01-04T03:59:07.294Z,8.20
2024-01-04T04:01:36.446Z,8.20
2024-01-04T04:04:06.107Z,8.20
2024-01-04T04:06:34.679Z,8.20
2024-01-04T04:09:05.020Z,8.20
2024-01-04T04:11:33.780Z,8.20
2024-01-04T04:14:02.622Z,8.20
2024-01-04T04:16:31.149Z,8.20
2024-01-04T04:18:59.879Z,8.20
2024-01-04T04:21:28.575Z,8.10
2024-01-04T04:23:57.243Z,8.20
2024-01-04T04:26:27.200Z,8.20
2024-01-04T04:28:55.908Z,8.20
2024-01-04T04:31:24.866Z,8.20
2024-01-04T04:33:53.754Z,8.20
2024-01-04T04:36:23.082Z,8.20
2024-01-04T04:38:51.701Z,8.20
2024-01-04T04:41:20.252Z,8.30
2024-01-04T04:43:50.269Z,8.20
2024-01-04T04:46:20.012Z,8.20
2024-01-04T04:48:48.701Z,8.10
2024-01-04T04:51:17.478Z,8.10
2024-01-04T04:53:46.284Z,8.10
2024-01-04T04:56:15.078Z,8.10
2024-01-04T04:58:43.680Z,8.10
2024-01-04T05:01:14.476Z,8.10
2024-01-04T05:03:44.407Z,8.10
2024-01-04T05:06:14.371Z,8.10
2024-01-04T05:08:43.044Z,8.10
2024-01-04T05:11:11.711Z,8.00
2024-01-04T05:13:40.303Z,8.00
2024-01-04T05:16:08.958Z,8.00
2024-01-04T05:18:39.690Z,8.00
2024-01-04T05:21:08.745Z,8.00
2024-01-04T05:23:37.377Z,8.00
2024-01-04T05:26:06.089Z,8.00
2024-01-04T05:28:34.728Z,8.00
2024-01-04T05:31:05.619Z,8.00
2024-01-04T05:33:34.471Z,8.00
2024-01-04T05:36:05.249Z,8.00
2024-01-04T05:38:33.838Z,8.00
2024-01-04T05:41:02.397Z,8.00
2024-01-04T05:43:31.198Z,8.00
2024-01-04T05:46:00.010Z,8.00
2024-01-04T05:48:28.886Z,8.00
2024-01-04T05:50:57.731Z,7.90
2024-01-04T05:53:27.941Z,7.90
2024-01-04T05:55:56.503Z,8.00
2024-01-04T05:58:25.269Z,8.00
2024-01-04T06:00:54.009Z,7.90
2024-01-04T06:03:22.707Z,7.90
2024-01-04T06:05:51.574Z,7.90
2024-01-04T06:08:20.267Z,7.90
2024-01-04T06:10:50.289Z,7.90
2024-01-04T06:13:19.892Z,8.00
2024-01-04T06:15:48.743Z,7.90
2024-01-04T06:18:17.548Z,8.00
2024-01-04T06:20:46.393Z,7.90
2024-01-04T06:23:15.104Z,7.90
2024-01-04T06:25:43.829Z,7.90
2024-01-04T06:28:13.960Z,7.90
2024-01-04T06:30:42.823Z,8.00
2024-01-04T06:33:11.766Z,8.00
2024-01-04T06:35:40.463Z,7.90
2024-01-04T06:38:09.741Z,8.00
2024-01-04T06:40:38.792Z,8.00
2024-01-04T06:43:09.626Z,8.00
2024-01-04T06:45:39.952Z,8.00
2024-01-04T06:48:10.144Z,8.00
2024-01-04T06:50:39.262Z,8.00
2024-01-04T06:53:09.139Z,8.00
2024-01-04T06:55:37.830Z,8.00
2024-01-04T06:58:06.667Z,8.00
2024-01-04T07:00:35.514Z,8.00
2024-01-04T07:03:06.353Z,8.00
2024-01-04T07:05:35.293Z,8.00
2024-01-04T07:08:04.663Z,8.00
2024-01-04T07:10:33.323Z,8.00
2024-01-04T07:13:01.992Z,8.00
2024-01-04T07:15:30.682Z,8.00
2024-01-04T07:17:59.907Z,7.90
2024-01-04T07:20:30.358Z,7.90
2024-01-04T07:22:59.292Z,7.90
2024-01-04T07:25:27.885Z,7.80
2024-01-04T07:27:56.854Z,7.80
2024-01-04T07:30:25.625Z,7.70
2024-01-04T07:32:54.540Z,7.80
2024-01-04T07:35:24.860Z,7.80
2024-01-04T07:37:55.888Z,7.80
2024-01-04T07:40:25.019Z,7.90
2024-01-04T07:42:53.771Z,7.90
2024-01-04T07:45:22.427Z,7.80
2024-01-04T07:47:51.114Z,8.00
2024-01-04T07:50:19.899Z,7.90
2024-01-04T07:52:48.521Z,7.90
2024-01-04T07:55:21.111Z,8.00
2024-01-04T07:57:49.749Z,8.00
2024-01-04T08:00:19.663Z,8.00
2024-01-04T08:02:48.340Z,8.00
2024-01-04T08:05:16.990Z,8.00
2024-01-04T08:07:45.667Z,8.10
2024-01-04T08:10:14.394Z,8.00
2024-01-04T08:12:47.049Z,8.10
2024-01-04T08:15:16.175Z,8.10
2024-01-04T08:17:45.131Z,8.10
2024-01-04T08:20:16.209Z,8.10
2024-01-04T08:22:44.990Z,8.10
2024-01-04T08:25:13.667Z,8.20
2024-01-04T08:27:42.401Z,8.20
2024-01-04T08:30:14.387Z,8.20
2024-01-04T08:32:43.533Z,8.30
2024-01-04T08:35:12.453Z,8.30
2024-01-04T08:37:41.932Z,8.30
2024-01-04T08:40:15.258Z,8.30
2024-01-04T08:42:44.105Z,8.40
2024-01-04T08:45:14.131Z,8.40
2024-01-04T08:47:42.947Z,8.40
2024-01-04T08:50:13.077Z,8.50
2024-01-04T08:52:41.817Z,8.50
2024-01-04T08:55:11.288Z,8.50
2024-01-04T08:57:39.825Z,8.50
2024-01-04T09:00:11.793Z,8.60
2024-01-04T09:02:41.987Z,8.60
2024-01-04T09:05:11.033Z,8.60
2024-01-04T09:07:39.831Z,8.60
2024-01-04T09:10:10.122Z,8.60
2024-01-04T09:12:41.313Z,8.60
2024-01-04T09:15:11.013Z,8.60
2024-01-04T09:17:42.843Z,8.60
2024-01-04T09:20:11.298Z,8.60
2024-01-04T09:22:39.950Z,8.60
2024-01-04T09:25:09.223Z,8.60
2024-01-04T09:27:37.968Z,8.60
2024-01-04T09:30:07.677Z,8.60
2024-01-04T09:32:36.456Z,8.60
2024-01-04T09:35:07.526Z,8.60
2024-01-04T09:37:36.105Z,8.60
2024-01-04T09:40:05.426Z,8.60
2024-01-04T09:42:39.105Z,8.60
2024-01-04T09:45:11.850Z,8.60
2024-01-04T09:47:43.173Z,8.60
2024-01-04T09:50:15.449Z,8.60
2024-01-04T09:52:45.903Z,8.60
2024-01-04T09:55:14.573Z,8.60
2024-01-04T09:57:43.440Z,8.60
2024-01-04T10:00:13.210Z,8.60
2024-01-04T10:02:44.284Z,8.50
2024-01-04T10:05:18.175Z,8.50
2024-01-04T10:07:56.056Z,8.50
2024-01-04T10:10:30.049Z,8.50
2024-01-04T10:13:00.608Z,8.60
2024-01-04T10:15:29.454Z,8.60
2024-01-04T10:17:59.861Z,8.60
2024-01-04T10:20:30.436Z,8.60
2024-01-04T10:22:59.943Z,8.70
2024-01-04T10:25:28.637Z,8.70
2024-01-04T10:27:58.247Z,8.80
2024-01-04T10:30:27.704Z,8.70
2024-01-04T10:32:56.819Z,8.80
2024-01-04T10:35:31.538Z,8.80
2024-01-04T10:38:01.241Z,8.90
2024-01-04T10:40:32.803Z,8.80
2024-01-04T10:43:03.651Z,8.90
2024-01-04T10:45:32.687Z,8.90
2024-01-04T10:48:01.822Z,8.90
2024-01-04T10:50:32.974Z,9.00
2024-01-04T10:53:05.028Z,9.00
2024-01-04T10:55:34.697Z,9.10
2024-01-04T10:58:05.343Z,9.20
2024-01-04T11:00:34.997Z,9.20
2024-01-04T11:03:07.442Z,9.30
2024-01-04T11:05:39.135Z,9.40
2024-01-04T11:08:09.613Z,9.50
2024-01-04T11:10:38.416Z,9.50
2024-01-04T11:13:07.138Z,9.50
2024-01-04T11:15:35.902Z,9.60
2024-01-04T11:18:20.302Z,9.60
2024-01-04T11:21:04.193Z,9.50
2024-01-04T11:24:04.078Z,9.40
2024-01-04T11:26:42.105Z,9.40
2024-01-04T11:29:11.865Z,9.30
2024-01-04T11:31:45.102Z,9.30
2024-01-04T11:34:15.887Z,9.20
2024-01-04T11:36:46.098Z,9.30
2024-01-04T11:39:15.471Z,9.30
2024-01-04T11:41:44.132Z,9.40
2024-01-04T11:44:18.959Z,9.50
2024-01-04T11:46:47.598Z,9.50
2024-01-04T11:49:17.514Z,9.60
2024-01-04T11:51:48.508Z,9.50
2024-01-04T11:54:18.624Z,9.60
2024-01-04T11:56:49.036Z,9.60
2024-01-04T11:59:19.433Z,9.60
2024-01-04T12:01:47.447Z,9.70
2024-01-04T12:04:17.573Z,9.80
2024-01-04T12:06:51.112Z,9.90
2024-01-04T12:09:20.635Z,10.20
2024-01-04T12:11:56.438Z,10.40
2024-01-04T12:14:25.713Z,10.40
2024-01-04T12:16:54.795Z,10.40
2024-01-04T12:19:23.808Z,10.40
2024-01-04T12:21:54.101Z,10.40
2024-01-04T12:24:23.388Z,10.30
2024-01-04T12:26:52.521Z,10.30
2024-01-04T12:29:22.508Z,10.20
2024-01-04T12:31:52.592Z,10.20
2024-01-04T12:34:21.480Z,10.20
2024-01-04T12:36:50.307Z,10.20
2024-01-04T12:39:21.872Z,10.20
2024-01-04T12:41:51.270Z,10.30
2024-01-04T12:44:35.051Z,10.30
2024-01-04T12:47:10.079Z,10.30
2024-01-04T12:49:39.074Z,10.30
2024-01-04T12:52:12.672Z,10.20
2024-01-04T12:54:42.155Z,10.10
2024-01-04T12:57:10.650Z,10.10
2024-01-04T12:59:40.751Z,10.10
2024-01-04T13:02:11.327Z,10.00
2024-01-04T13:04:41.036Z,10.00
2024-01-04T13:07:09.751Z,10.00
2024-01-04T13:09:38.426Z,10.00
2024-01-04T13:12:07.706Z,10.00
2024-01-04T13:14:36.310Z,9.90
2024-01-04T13:17:06.614Z,9.80
2024-01-04T13:19:35.226Z,9.80
2024-01-04T13:22:03.913Z,9.80
2024-01-04T13:24:32.549Z,9.70
2024-01-04T13:27:01.308Z,9.70
2024-01-04T13:29:29.890Z,9.80
2024-01-04T13:31:58.543Z,9.60
2024-01-04T13:34:28.587Z,9.50
2024-01-04T13:36:58.068Z,9.60
2024-01-04T13:39:28.763Z,9.50
2024-01-04T13:41:58.393Z,9.60
2024-01-04T13:44:27.018Z,9.60
2024-01-04T13:46:55.563Z,9.60
2024-01-04T13:49:24.332Z,9.60
2024-01-04T13:51:54.378Z,9.50
2024-01-04T13:54:23.071Z,9.40
2024-01-04T13:56:51.772Z,9.30
2024-01-04T13:59:20.977Z,9.20
2024-01-04T14:01:49.594Z,9.20
2024-01-04T14:04:18.280Z,9.10
2024-01-04T14:06:47.004Z,8.80
2024-01-04T14:09:18.313Z,8.90
2024-01-04T14:11:47.057Z,8.70
2024-01-04T14:14:19.804Z,8.60
2024-01-04T14:16:49.409Z,8.60
2024-01-04T14:19:18.101Z,8.60
2024-01-04T14:21:46.880Z,8.50
2024-01-04T14:24:17.273Z,8.50
2024-01-04T14:26:46.160Z,8.50
2024-01-04T14:29:14.883Z,8.40
2024-01-04T14:31:43.733Z,8.40
2024-01-04T14:34:13.229Z,8.40
2024-01-04T14:36:42.804Z,8.40
2024-01-04T14:39:12.945Z,8.40
2024-01-04T14:41:44.444Z,8.40
2024-01-04T14:44:13.252Z,8.40
2024-01-04T14:46:41.987Z,8.40
2024-01-04T14:49:11.218Z,8.50
2024-01-04T14:51:40.131Z,8.40
2024-01-04T14:54:09.105Z,8.60
2024-01-04T14:56:38.525Z,8.50
2024-01-04T14:59:09.259Z,8.60
2024-01-04T15:01:38.104Z,8.50
2024-01-04T15:04:06.997Z,8.40
2024-01-04T15:06:35.985Z,8.40
2024-01-04T15:09:05.469Z,8.40
2024-01-04T15:11:34.919Z,8.30
2024-01-04T15:14:03.713Z,8.30
2024-01-04T15:16:33.928Z,8.20
2024-01-04T15:19:03.026Z,8.20
2024-01-04T15:21:31.964Z,8.20
2024-01-04T15:24:00.755Z,8.20
2024-01-04T15:26:30.701Z,8.20
2024-01-04T15:29:00.768Z,8.10
2024-01-04T15:31:30.003Z,8.10
2024-01-04T15:34:01.388Z,8.00
2024-01-04T15:36:30.589Z,8.10
2024-01-04T15:39:02.092Z,7.90
2024-01-04T15:41:31.739Z,8.00
2024-01-04T15:44:02.424Z,7.90
2024-01-04T15:46:31.306Z,7.80
2024-01-04T15:49:01.452Z,7.80
2024-01-04T15:51:31.613Z,7.80
2024-01-04T15:54:00.632Z,7.70
2024-01-04T15:56:32.596Z,7.70
2024-01-04T15:59:01.721Z,7.70
2024-01-04T16:01:32.197Z,7.70
2024-01-04T16:04:03.004Z,7.70
2024-01-04T16:06:31.804Z,7.80
2024-01-04T16:09:00.674Z,7.90
2024-01-04T16:11:29.439Z,7.90
2024-01-04T16:13:58.202Z,7.80
2024-01-04T16:16:27.037Z,7.90
2024-01-04T16:18:56.143Z,7.90
2024-01-04T16:21:26.376Z,7.90
2024-01-04T16:23:57.808Z,7.90
2024-01-04T16:26:26.828Z,7.90
2024-01-04T16:28:55.785Z,7.90
2024-01-04T16:31:24.695Z,7.90
2024-01-04T16:33:53.604Z,7.90
2024-01-04T16:36:27.469Z,7.80
2024-01-04T16:38:58.235Z,7.80
2024-01-04T16:41:27.417Z,7.70
2024-01-04T16:43:56.985Z,7.60
2024-01-04T16:46:28.316Z,7.60
2024-01-04T16:48:57.482Z,7.50
2024-01-04T16:51:26.889Z,7.40
2024-01-04T16:53:57.142Z,7.40
2024-01-04T16:56:26.110Z,7.40
2024-01-04T16:58:55.568Z,7.30
2024-01-04T17:01:24.342Z,7.20
2024-01-04T17:03:53.056Z,7.20
2024-01-04T17:06:21.947Z,7.20
2024-01-04T17:08:50.758Z,7.20
2024-01-04T17:11:20.820Z,7.10
2024-01-04T17:13:49.685Z,7.10
2024-01-04T17:16:22.905Z,7.10
2024-01-04T17:18:52.550Z,7.10
2024-01-04T17:21:21.325Z,7.20
2024-01-04T17:23:50.246Z,7.20
2024-01-04T17:26:20.308Z,7.20
2024-01-04T17:28:48.988Z,7.20
2024-01-04T17:31:18.036Z,7.20
2024-01-04T17:33:47.562Z,7.20
2024-01-04T17:36:25.485Z,7.30
2024-01-04T17:38:57.911Z,7.10
2024-01-04T17:41:27.916Z,7.00
2024-01-04T17:43:56.625Z,7.10
2024-01-04T17:46:25.325Z,7.00
2024-01-04T17:48:56.569Z,7.10
2024-01-04T17:51:25.447Z,7.00
2024-01-04T17:53:54.465Z,7.00
2024-01-04T17:56:23.100Z,7.00
2024-01-04T17:58:53.453Z,7.10
2024-01-04T18:01:22.181Z,6.90
2024-01-04T18:03:50.834Z,7.00
2024-01-04T18:06:19.760Z,6.90
2024-01-04T18:10:21.416Z,6.90
2024-01-04T18:12:50.410Z,6.80
2024-01-04T18:15:20.621Z,6.80
2024-01-04T18:17:49.435Z,6.80
2024-01-04T18:20:18.872Z,6.80
2024-01-04T18:22:47.632Z,6.70
2024-01-04T18:25:17.867Z,6.70
2024-01-04T18:27:47.979Z,6.70
2024-01-04T18:30:16.881Z,6.70
2024-01-04T18:32:45.639Z,6.70
2024-01-04T18:35:14.305Z,6.70
2024-01-04T18:37:43.096Z,6.70
2024-01-04T18:40:12.500Z,6.70
2024-01-04T18:42:41.153Z,6.70
2024-01-04T18:45:11.686Z,6.70
2024-01-04T18:47:40.452Z,6.60
2024-01-04T18:50:09.895Z,6.70
2024-01-04T18:52:38.709Z,6.70
2024-01-04T18:55:07.834Z,6.70
2024-01-04T18:57:36.522Z,6.70
2024-01-04T19:00:06.731Z,6.80
2024-01-04T19:02:36.842Z,6.80
2024-01-04T19:05:06.116Z,6.80
2024-01-04T19:07:34.799Z,6.90
2024-01-04T19:10:03.730Z,6.90
2024-01-04T19:12:32.427Z,6.90
2024-01-04T19:15:12.115Z,6.90
2024-01-04T19:17:47.619Z,7.00
2024-01-04T19:20:16.372Z,7.00
2024-01-04T19:22:50.140Z,7.00
2024-01-04T19:25:19.448Z,7.00
2024-01-04T19:27:48.110Z,7.00
2024-01-04T19:30:17.432Z,7.10
2024-01-04T19:32:47.679Z,7.10
2024-01-04T19:35:16.773Z,7.10
2024-01-04T19:37:45.468Z,7.10
2024-01-04T19:40:15.156Z,7.10
2024-01-04T19:42:45.979Z,7.10
2024-01-04T19:45:15.356Z,7.10
2024-01-04T19:47:44.945Z,7.10
2024-01-04T19:50:16.057Z,7.10
2024-01-04T19:52:44.722Z,7.10
2024-01-04T19:55:14.781Z,7.20
2024-01-04T19:57:43.693Z,7.10
2024-01-04T20:00:13.312Z,7.10
2024-01-04T20:02:42.108Z,7.10
2024-01-04T20:05:11.792Z,7.10
2024-01-04T20:07:42.008Z,7.10
2024-01-04T20:10:11.113Z,7.10
2024-01-04T20:12:39.974Z,7.10
2024-01-04T20:15:09.466Z,7.10
2024-01-04T20:17:38.429Z,7.20
2024-01-04T20:20:08.788Z,7.10
2024-01-04T20:22:38.016Z,7.20
2024-01-04T20:25:08.906Z,7.20
2024-01-04T20:27:42.959Z,7.20
2024-01-04T20:30:12.870Z,7.20
2024-01-04T20:32:41.792Z,7.20
2024-01-04T20:35:10.748Z,7.20
2024-01-04T20:37:39.791Z,7.20
2024-01-04T20:40:11.220Z,7.20
2024-01-04T20:42:39.947Z,7.20
2024-01-04T20:45:09.382Z,7.30
2024-01-04T20:47:38.180Z,7.20
2024-01-04T20:50:07.932Z,7.20
2024-01-04T20:52:36.681Z,7.30
2024-01-04T20:55:07.199Z,7.30
2024-01-04T20:57:37.496Z,7.30
2024-01-04T21:00:08.249Z,7.30
2024-01-04T21:02:37.062Z,7.30
2024-01-04T21:05:10.038Z,7.30
2024-01-04T21:07:39.347Z,7.30
2024-01-04T21:10:09.288Z,7.40
2024-01-04T21:12:39.632Z,7.40
2024-01-04T21:15:08.835Z,7.40
2024-01-04T21:17:37.532Z,7.40
2024-01-04T21:20:08.275Z,7.40
2024-01-04T21:22:37.253Z,7.40
2024-01-04T21:25:06.380Z,7.40
2024-01-04T21:27:35.117Z,7.40
2024-01-04T21:30:06.292Z,7.40
2024-01-04T21:32:35.074Z,7.40
2024-01-04T21:35:04.091Z,7.40
2024-01-04T21:37:33.084Z,7.40
2024-01-04T21:40:02.043Z,7.40
2024-01-04T21:42:30.827Z,7.40
2024-01-04T21:45:01.159Z,7.40
2024-01-04T21:47:31.532Z,7.40
2024-01-04T21:50:00.418Z,7.40
2024-01-04T21:52:29.214Z,7.40
2024-01-04T21:54:57.982Z,7.40
2024-01-04T21:57:26.724Z,7.40
2024-01-04T21:59:55.339Z,7.40
2024-01-04T22:02:24.209Z,7.40
2024-01-04T22:04:54.326Z,7.50
2024-01-04T22:07:22.914Z,7.50
2024-01-04T22:09:53.007Z,7.50
2024-01-04T22:12:21.697Z,7.50
2024-01-04T22:14:50.367Z,7.50
2024-01-04T22:17:19.411Z,7.60
2024-01-04T22:19:48.217Z,7.50
2024-01-04T22:22:18.321Z,7.50
2024-01-04T22:24:47.242Z,7.50
2024-01-04T22:27:16.352Z,7.50
2024-01-04T22:29:45.074Z,7.50
2024-01-04T22:32:14.012Z,7.40
2024-01-04T22:34:42.700Z,7.40
2024-01-04T22:37:12.025Z,7.50
2024-01-04T22:39:42.208Z,7.50
2024-01-04T22:42:10.893Z,7.50
2024-01-04T22:44:39.521Z,7.50
2024-01-04T22:47:09.399Z,7.50
2024-01-04T22:49:38.201Z,7.50
2024-01-04T22:52:07.392Z,7.50
2024-01-04T22:54:36.112Z,7.50
2024-01-04T22:57:06.664Z,7.50
2024-01-04T22:59:35.846Z,7.60
2024-01-04T23:02:06.065Z,7.60
2024-01-04T23:04:36.170Z,7.60
2024-01-04T23:07:05.292Z,7.60
2024-01-04T23:09:34.121Z,7.60
2024-01-04T23:12:02.857Z,7.60
2024-01-04T23:14:32.974Z,7.60
2024-01-04T23:17:02.526Z,7.60
2024-01-04T23:19:31.434Z,7.70
2024-01-04T23:22:00.575Z,7.70
2024-01-04T23:24:29.456Z,7.70
2024-01-04T23:26:58.434Z,7.70
2024-01-04T23:29:27.146Z,7.70
2024-01-04T23:31:57.128Z,7.70
2024-01-04T23:34:25.894Z,7.70
2024-01-04T23:36:54.650Z,7.90
2024-01-04T23:39:23.416Z,7.70
2024-01-04T23:41:52.308Z,7.70
2024-01-04T23:44:21.278Z,7.70
2024-01-04T23:46:49.923Z,7.70
2024-01-04T23:49:20.054Z,7.70
2024-01-04T23:51:49.026Z,7.90
2024-01-04T23:54:17.712Z,7.70
2024-01-04T23:56:46.585Z,7.70
2024-01-04T23:59:15.502Z,7.80
